createdAt,value
2023-01-12T00:02:12.259Z,21.37
2023-01-12T00:04:40.490Z,21.90
2023-01-12T00:07:09.013Z,21.97
2023-01-12T00:09:37.530Z,21.73
2023-01-12T00:12:07.086Z,22.30
2023-01-12T00:14:35.106Z,22.00
2023-01-12T00:17:03.438Z,22.67
2023-01-12T00:19:33.445Z,22.27
2023-01-12T00:22:07.133Z,21.40
2023-01-12T00:24:36.887Z,20.37
2023-01-12T00:27:06.812Z,20.77
2023-01-12T00:29:34.903Z,20.73
2023-01-12T00:32:02.898Z,22.30
2023-01-12T00:34:32.340Z,23.63
2023-01-12T00:37:01.601Z,23.00
2023-01-12T00:39:29.544Z,22.70
2023-01-12T00:42:15.154Z,20.60
2023-01-12T00:45:00.665Z,20.73
2023-01-12T00:47:28.548Z,22.60
2023-01-12T00:49:57.753Z,23.13
2023-01-12T00:52:30.808Z,23.40
2023-01-12T00:54:59.521Z,23.23
2023-01-12T00:57:28.199Z,23.80
2023-01-12T00:59:58.307Z,22.00
2023-01-12T01:02:27.218Z,23.33
2023-01-12T01:04:55.106Z,23.37
2023-01-12T01:07:24.549Z,22.77
2023-01-12T01:09:52.804Z,22.33
2023-01-12T01:12:21.160Z,22.00
2023-01-12T01:14:49.608Z,22.93
2023-01-12T01:17:17.801Z,22.37
2023-01-12T01:19:45.743Z,23.93
2023-01-12T01:22:13.626Z,23.20
2023-01-12T01:24:43.345Z,23.27
2023-01-12T01:27:11.262Z,22.23
2023-01-12T01:29:39.036Z,22.00
2023-01-12T01:32:07.465Z,22.80
2023-01-12T01:34:35.637Z,22.63
2023-01-12T01:37:03.483Z,23.53
2023-01-12T01:39:31.399Z,21.67
2023-01-12T01:42:01.142Z,22.17
2023-01-12T01:44:51.770Z,22.27
2023-01-12T01:47:27.833Z,24.00
2023-01-12T01:49:58.659Z,23.20
2023-01-12T01:52:31.594Z,22.57
2023-01-12T01:55:03.985Z,22.10
2023-01-12T01:57:37.696Z,20.80
2023-01-12T02:00:08.897Z,22.27
2023-01-12T02:02:37.869Z,23.10
2023-01-12T02:05:06.656Z,20.13
2023-01-12T02:07:34.920Z,22.33
2023-01-12T02:10:03.215Z,18.93
2023-01-12T02:12:48.820Z,19.53
2023-01-12T02:15:36.404Z,19.70
2023-01-12T02:18:14.964Z,18.70
2023-01-12T02:20:52.247Z,20.30
2023-01-12T02:23:59.048Z,18.90
2023-01-12T02:27:08.819Z,17.27
2023-01-12T02:30:01.303Z,18.90
2023-01-12T02:32:39.603Z,17.93
2023-01-12T02:35:18.100Z,18.87
2023-01-12T02:37:51.890Z,16.90
2023-01-12T02:40:24.732Z,17.37
2023-01-12T02:43:02.750Z,17.17
2023-01-12T02:45:39.588Z,16.90
2023-01-12T02:48:15.261Z,17.43
2023-01-12T02:50:50.955Z,15.67
2023-01-12T02:53:24.266Z,16.03
2023-01-12T02:55:53.351Z,18.07
2023-01-12T02:58:25.303Z,19.07
2023-01-12T03:00:58.828Z,17.63
2023-01-12T03:03:28.301Z,18.70
2023-01-12T03:05:57.314Z,19.33
2023-01-12T03:08:29.009Z,19.53
2023-01-12T03:11:08.175Z,19.97
2023-01-12T03:13:40.615Z,18.80
2023-01-12T03:16:11.909Z,19.70
2023-01-12T03:18:45.656Z,18.97
2023-01-12T03:21:19.678Z,18.07
2023-01-12T03:23:50.395Z,20.37
2023-01-12T03:26:23.159Z,20.10
2023-01-12T03:28:57.112Z,21.60
2023-01-12T03:31:25.657Z,21.90
2023-01-12T03:33:55.573Z,21.10
2023-01-12T03:36:32.561Z,22.03
2023-01-12T03:39:07.228Z,21.20
2023-01-12T03:41:44.344Z,20.03
2023-01-12T03:44:18.840Z,22.17
2023-01-12T03:46:55.153Z,19.73
2023-01-12T03:49:32.850Z,22.63
2023-01-12T03:52:03.167Z,21.40
2023-01-12T03:54:33.285Z,22.20
2023-01-12T03:57:02.941Z,22.00
2023-01-12T03:59:30.871Z,22.50
2023-01-12T04:01:59.251Z,22.60
2023-01-12T04:04:28.485Z,21.30
2023-01-12T04:06:56.558Z,23.70
2023-01-12T04:09:25.817Z,22.60
2023-01-12T04:12:12.216Z,22.00
2023-01-12T04:14:41.292Z,22.20
2023-01-12T04:17:10.465Z,22.50
2023-01-12T04:19:39.685Z,21.00
2023-01-12T04:22:25.718Z,21.53
2023-01-12T04:24:53.704Z,20.80
2023-01-12T04:27:21.561Z,23.27
2023-01-12T04:29:49.391Z,23.87
2023-01-12T04:32:17.269Z,23.00
2023-01-12T04:34:47.075Z,22.30
2023-01-12T04:37:15.181Z,20.57
2023-01-12T04:39:43.092Z,21.40
2023-01-12T04:42:30.994Z,19.90
2023-01-12T04:44:58.835Z,21.30
2023-01-12T04:47:26.703Z,21.30
2023-01-12T04:49:55.888Z,22.00
2023-01-12T04:52:23.723Z,21.53
2023-01-12T04:54:51.580Z,22.20
2023-01-12T04:57:19.443Z,20.83
2023-01-12T04:59:47.359Z,22.10
2023-01-12T05:02:15.469Z,22.13
2023-01-12T05:04:43.663Z,22.03
2023-01-12T05:07:12.911Z,21.27
2023-01-12T05:09:58.079Z,20.70
2023-01-12T05:12:25.932Z,22.00
2023-01-12T05:14:53.761Z,20.93
2023-01-12T05:17:21.649Z,21.23
2023-01-12T05:19:49.685Z,20.60
2023-01-12T05:22:18.893Z,19.53
2023-01-12T05:24:46.783Z,21.17
2023-01-12T05:27:14.602Z,21.90
2023-01-12T05:29:42.559Z,22.20
2023-01-12T05:32:10.811Z,21.33
2023-01-12T05:34:38.629Z,20.03
2023-01-12T05:37:06.534Z,20.93
2023-01-12T05:39:36.052Z,21.50
2023-01-12T05:42:21.272Z,19.80
2023-01-12T05:44:49.186Z,18.90
2023-01-12T05:47:17.125Z,19.87
2023-01-12T05:49:45.009Z,17.27
2023-01-12T05:52:12.831Z,18.10
2023-01-12T05:54:42.051Z,18.83
2023-01-12T05:57:09.938Z,19.13
2023-01-12T05:59:37.813Z,20.77
2023-01-12T06:02:05.722Z,20.70
2023-01-12T06:04:33.681Z,19.97
2023-01-12T06:07:01.579Z,20.73
2023-01-12T06:09:29.483Z,20.83
2023-01-12T06:12:16.189Z,20.13
2023-01-12T06:14:44.099Z,20.77
2023-01-12T06:17:11.961Z,21.27
2023-01-12T06:19:40.038Z,18.20
2023-01-12T06:22:08.406Z,19.33
2023-01-12T06:24:36.273Z,18.63
2023-01-12T06:27:05.547Z,18.67
2023-01-12T06:29:33.385Z,17.30
2023-01-12T06:32:01.304Z,17.10
2023-01-12T06:34:34.675Z,17.10
2023-01-12T06:37:03.036Z,18.00
2023-01-12T06:39:31.139Z,16.97
2023-01-12T06:42:16.710Z,18.53
2023-01-12T06:44:47.664Z,19.23
2023-01-12T06:47:16.928Z,18.00
2023-01-12T06:49:44.862Z,18.10
2023-01-12T06:52:12.740Z,20.13
2023-01-12T06:54:40.730Z,21.40
2023-01-12T06:57:08.694Z,20.90
2023-01-12T06:59:38.839Z,20.33
2023-01-12T07:02:12.179Z,20.57
2023-01-12T07:04:40.446Z,19.30
2023-01-12T07:07:09.510Z,20.07
2023-01-12T07:09:37.785Z,19.53
2023-01-12T07:12:06.394Z,19.43
2023-01-12T07:14:34.342Z,17.60
2023-01-12T07:17:02.211Z,16.50
2023-01-12T07:19:31.467Z,19.20
2023-01-12T07:21:59.298Z,17.20
2023-01-12T07:24:27.203Z,17.30
2023-01-12T07:26:58.099Z,17.90
2023-01-12T07:29:25.998Z,16.40
2023-01-12T07:31:53.965Z,16.60
2023-01-12T07:34:22.416Z,16.37
2023-01-12T07:36:52.174Z,16.53
2023-01-12T07:39:20.237Z,20.87
2023-01-12T07:42:20.405Z,25.40
2023-01-12T07:44:48.291Z,21.67
2023-01-12T07:47:16.220Z,19.90
2023-01-12T07:49:44.129Z,16.70
2023-01-12T07:52:13.754Z,15.60
2023-01-12T07:54:41.693Z,15.83
2023-01-12T07:57:11.906Z,17.00
2023-01-12T07:59:39.814Z,15.20
2023-01-12T08:02:08.079Z,16.30
2023-01-12T08:04:36.053Z,15.80
2023-01-12T08:07:04.035Z,15.03
2023-01-12T08:09:33.339Z,17.60
2023-01-12T08:12:01.203Z,17.20
2023-01-12T08:14:33.315Z,15.43
2023-01-12T08:17:03.553Z,15.63
2023-01-12T08:19:38.551Z,15.63
2023-01-12T08:22:11.063Z,17.97
2023-01-12T08:24:44.988Z,15.20
2023-01-12T08:27:13.055Z,14.10
2023-01-12T08:29:44.943Z,16.17
2023-01-12T08:32:17.752Z,13.33
2023-01-12T08:34:49.181Z,15.03
2023-01-12T08:37:22.138Z,29.20
2023-01-12T08:40:28.283Z,20.13
2023-01-12T08:42:57.632Z,32.37
2023-01-12T08:45:25.523Z,19.30
2023-01-12T08:47:53.458Z,20.10
2023-01-12T08:50:21.425Z,19.77
2023-01-12T08:52:49.618Z,18.90
2023-01-12T08:55:18.863Z,19.77
2023-01-12T08:57:46.957Z,19.50
2023-01-12T09:00:15.956Z,20.10
2023-01-12T09:02:43.839Z,19.40
2023-01-12T09:05:11.925Z,19.40
2023-01-12T09:07:40.775Z,19.53
2023-01-12T09:10:09.658Z,20.60
2023-01-12T09:12:38.959Z,23.10
2023-01-12T09:15:08.141Z,20.30
2023-01-12T09:17:36.044Z,21.37
2023-01-12T09:20:04.167Z,30.43
2023-01-12T09:22:32.016Z,24.10
2023-01-12T09:24:59.848Z,22.70
2023-01-12T09:27:27.698Z,23.53
2023-01-12T09:29:57.116Z,23.43
2023-01-12T09:32:29.156Z,22.23
2023-01-12T09:35:03.943Z,22.30
2023-01-12T09:37:32.969Z,21.60
2023-01-12T09:40:00.854Z,22.40
2023-01-12T09:42:46.295Z,22.10
2023-01-12T09:45:38.905Z,21.50
2023-01-12T09:48:09.714Z,20.60
2023-01-12T09:50:40.461Z,20.40
2023-01-12T09:53:14.971Z,19.30
2023-01-12T09:55:48.982Z,21.40
2023-01-12T09:58:39.292Z,20.50
2023-01-12T10:01:24.197Z,21.80
2023-01-12T10:03:57.375Z,20.80
2023-01-12T10:06:25.360Z,20.77
2023-01-12T10:08:57.997Z,21.33
2023-01-12T10:11:34.481Z,21.43
2023-01-12T10:14:26.919Z,18.43
2023-01-12T10:17:07.823Z,20.00
2023-01-12T10:19:45.217Z,15.70
2023-01-12T10:22:37.028Z,15.00
2023-01-12T10:25:22.554Z,16.20
2023-01-12T10:27:52.620Z,15.13
2023-01-12T10:30:25.805Z,15.77
2023-01-12T10:32:55.065Z,17.37
2023-01-12T10:35:25.324Z,17.10
2023-01-12T10:37:54.922Z,17.57
2023-01-12T10:40:27.836Z,17.80
2023-01-12T10:43:22.285Z,14.10
2023-01-12T10:46:06.112Z,14.87
2023-01-12T10:48:35.739Z,12.77
2023-01-12T10:51:05.636Z,15.23
2023-01-12T10:53:39.506Z,13.30
2023-01-12T10:56:24.776Z,14.30
2023-01-12T10:58:58.830Z,15.00
2023-01-12T11:01:26.879Z,14.20
2023-01-12T11:04:06.009Z,15.80
2023-01-12T11:06:33.944Z,15.40
2023-01-12T11:09:18.887Z,14.97
2023-01-12T11:11:46.941Z,15.23
2023-01-12T11:14:24.849Z,14.67
2023-01-12T11:16:53.027Z,14.80
2023-01-12T11:19:28.347Z,15.63
2023-01-12T11:22:01.510Z,15.03
2023-01-12T11:24:39.237Z,17.27
2023-01-12T11:27:17.561Z,17.23
2023-01-12T11:29:55.269Z,17.87
2023-01-12T11:32:36.871Z,17.53
2023-01-12T11:35:29.083Z,18.60
2023-01-12T11:38:00.917Z,19.30
2023-01-12T11:40:32.696Z,18.80
2023-01-12T11:43:24.644Z,20.60
2023-01-12T11:45:56.036Z,20.60
2023-01-12T11:48:31.799Z,21.57
2023-01-12T11:51:01.808Z,19.13
2023-01-12T11:53:29.749Z,17.90
2023-01-12T11:56:09.335Z,18.20
2023-01-12T11:58:50.218Z,17.83
2023-01-12T12:01:25.577Z,18.27
2023-01-12T12:03:59.935Z,19.63
2023-01-12T12:06:57.430Z,20.17
2023-01-12T12:10:00.711Z,16.10
2023-01-12T12:12:42.693Z,18.80
2023-01-12T12:15:27.693Z,17.90
2023-01-12T12:18:12.572Z,17.00
2023-01-12T12:20:46.297Z,25.23
2023-01-12T12:23:27.398Z,18.10
2023-01-12T12:26:03.679Z,14.93
2023-01-12T12:28:48.330Z,16.13
2023-01-12T12:31:33.507Z,17.93
2023-01-12T12:34:19.908Z,14.90
2023-01-12T12:36:54.853Z,15.90
2023-01-12T12:39:43.866Z,14.50
2023-01-12T12:42:49.387Z,13.70
2023-01-12T12:45:28.336Z,12.90
2023-01-12T12:48:01.717Z,10.70
2023-01-12T12:50:32.733Z,15.07
2023-01-12T12:53:12.026Z,12.00
2023-01-12T12:55:42.896Z,13.90
2023-01-12T12:58:27.476Z,15.40
2023-01-12T13:00:56.861Z,14.80
2023-01-12T13:03:47.033Z,13.77
2023-01-12T13:06:21.035Z,13.27
2023-01-12T13:08:50.944Z,12.80
2023-01-12T13:11:21.371Z,13.93
2023-01-12T13:14:17.598Z,12.40
2023-01-12T13:16:51.755Z,12.43
2023-01-12T13:19:38.053Z,12.83
2023-01-12T13:22:28.507Z,13.00
2023-01-12T13:24:57.221Z,12.90
2023-01-12T13:27:55.548Z,12.50
2023-01-12T13:30:38.613Z,14.47
2023-01-12T13:33:23.865Z,13.23
2023-01-12T13:36:11.728Z,12.80
2023-01-12T13:39:02.682Z,12.50
2023-01-12T13:41:50.062Z,12.07
2023-01-12T13:44:25.387Z,13.57
2023-01-12T13:47:02.390Z,14.30
2023-01-12T13:49:32.939Z,13.00
2023-01-12T13:52:02.921Z,13.70
2023-01-12T13:54:31.340Z,13.07
2023-01-12T13:57:01.202Z,15.03
2023-01-12T13:59:31.010Z,15.20
2023-01-12T14:01:59.078Z,15.30
2023-01-12T14:04:46.002Z,15.63
2023-01-12T14:07:25.193Z,14.27
2023-01-12T14:10:06.913Z,14.77
2023-01-12T14:12:46.682Z,14.47
2023-01-12T14:15:45.513Z,15.00
2023-01-12T14:18:16.196Z,15.00
2023-01-12T14:20:49.661Z,14.70
2023-01-12T14:23:23.877Z,14.80
2023-01-12T14:26:14.615Z,16.13
2023-01-12T14:28:44.157Z,16.07
2023-01-12T14:31:23.095Z,16.83
2023-01-12T14:33:53.573Z,17.33
2023-01-12T14:36:25.443Z,17.97
2023-01-12T14:38:54.388Z,20.17
2023-01-12T14:41:42.417Z,18.93
2023-01-12T14:44:36.445Z,18.23
2023-01-12T14:47:06.696Z,21.30
2023-01-12T14:49:36.628Z,19.33
2023-01-12T14:52:23.072Z,18.87
2023-01-12T14:54:52.095Z,16.50
2023-01-12T14:57:24.138Z,17.17
2023-01-12T14:59:52.532Z,17.97
2023-01-12T15:02:36.652Z,21.70
2023-01-12T15:05:18.847Z,21.20
2023-01-12T15:07:55.732Z,17.87
2023-01-12T15:10:30.530Z,17.13
2023-01-12T15:13:00.477Z,15.80
2023-01-12T15:15:50.992Z,19.63
2023-01-12T15:18:37.581Z,17.20
2023-01-12T15:21:23.514Z,16.20
2023-01-12T15:24:09.421Z,18.17
2023-01-12T15:26:37.320Z,16.80
2023-01-12T15:29:05.182Z,18.60
2023-01-12T15:31:35.886Z,18.80
2023-01-12T15:34:06.684Z,19.10
2023-01-12T15:36:34.492Z,57.40
2023-01-12T15:39:02.289Z,34.27
2023-01-12T15:41:49.950Z,22.50
2023-01-12T15:44:19.654Z,21.17
2023-01-12T15:46:48.283Z,21.00
2023-01-12T15:49:17.734Z,20.10
2023-01-12T15:51:48.935Z,19.70
2023-01-12T15:54:19.011Z,20.03
2023-01-12T15:56:47.887Z,20.80
2023-01-12T15:59:16.469Z,21.60
2023-01-12T16:01:47.925Z,22.30
2023-01-12T16:07:06.812Z,21.10
2023-01-12T16:09:34.743Z,21.47
2023-01-12T16:12:02.832Z,21.37
2023-01-12T16:14:30.648Z,20.00
2023-01-12T16:16:58.466Z,20.20
2023-01-12T16:19:28.215Z,20.60
2023-01-12T16:21:56.143Z,21.10
2023-01-12T16:24:26.628Z,21.77
2023-01-12T16:26:54.881Z,18.87
2023-01-12T16:29:23.932Z,18.73
2023-01-12T16:31:52.047Z,19.03
2023-01-12T16:34:22.713Z,19.33
2023-01-12T16:36:52.277Z,20.20
2023-01-12T16:39:20.155Z,17.60
2023-01-12T16:41:49.079Z,20.47
2023-01-12T16:44:16.982Z,17.90
2023-01-12T16:46:44.842Z,18.13
2023-01-12T16:49:12.648Z,19.93
2023-01-12T16:51:40.527Z,53.30
2023-01-12T16:54:09.733Z,33.43
2023-01-12T16:56:37.608Z,23.97
2023-01-12T16:59:05.579Z,23.10
2023-01-12T17:01:33.539Z,25.30
2023-01-12T17:04:02.493Z,24.80
2023-01-12T17:06:31.225Z,25.47
2023-01-12T17:09:02.220Z,24.10
2023-01-12T17:11:32.749Z,22.13
2023-01-12T17:14:00.821Z,21.03
2023-01-12T17:16:29.413Z,21.63
2023-01-12T17:18:57.423Z,19.90
2023-01-12T17:21:25.511Z,20.10
2023-01-12T17:23:53.510Z,20.27
2023-01-12T17:26:21.590Z,18.43
2023-01-12T17:28:50.895Z,20.00
2023-01-12T17:31:20.582Z,20.00
2023-01-12T17:33:50.057Z,21.67
2023-01-12T17:36:18.787Z,22.00
2023-01-12T17:38:46.649Z,23.27
2023-01-12T17:41:30.436Z,24.00
2023-01-12T17:44:01.694Z,24.67
2023-01-12T17:46:29.915Z,23.60
2023-01-12T17:48:58.783Z,25.27
2023-01-12T17:51:27.076Z,24.00
2023-01-12T17:53:55.040Z,25.20
2023-01-12T17:56:23.066Z,24.70
2023-01-12T17:58:51.418Z,23.53
2023-01-12T18:01:21.787Z,24.70
2023-01-12T18:03:49.845Z,25.13
2023-01-12T18:06:25.972Z,24.03
2023-01-12T18:08:56.720Z,22.90
2023-01-12T18:11:24.860Z,23.90
2023-01-12T18:13:53.188Z,24.20
2023-01-12T18:16:22.983Z,22.27
2023-01-12T18:18:51.314Z,23.70
2023-01-12T18:21:21.563Z,23.47
2023-01-12T18:23:50.212Z,24.10
2023-01-12T18:26:20.932Z,25.77
2023-01-12T18:28:49.035Z,27.70
2023-01-12T18:31:19.007Z,26.50
2023-01-12T18:33:49.082Z,25.27
2023-01-12T18:36:20.792Z,24.97
2023-01-12T18:38:50.939Z,26.90
2023-01-12T18:41:37.893Z,29.63
2023-01-12T18:44:06.379Z,27.20
2023-01-12T18:46:49.321Z,29.27
2023-01-12T18:49:22.528Z,27.13
2023-01-12T18:52:08.028Z,26.67
2023-01-12T18:54:36.309Z,25.40
2023-01-12T18:57:04.387Z,27.90
2023-01-12T18:59:33.267Z,28.03
2023-01-12T19:02:01.256Z,28.70
2023-01-12T19:04:49.139Z,28.47
2023-01-12T19:07:19.124Z,27.93
2023-01-12T19:09:47.816Z,28.27
2023-01-12T19:12:15.701Z,29.20
2023-01-12T19:14:57.609Z,29.23
2023-01-12T19:17:29.713Z,28.90
2023-01-12T19:20:00.650Z,30.63
2023-01-12T19:22:46.657Z,29.40
2023-01-12T19:25:33.671Z,27.73
2023-01-12T19:28:19.353Z,28.23
2023-01-12T19:30:47.955Z,28.10
2023-01-12T19:33:16.242Z,29.10
2023-01-12T19:35:47.216Z,29.90
2023-01-12T19:38:15.929Z,28.70
2023-01-12T19:40:47.741Z,29.20
2023-01-12T19:43:19.706Z,28.27
2023-01-12T19:45:49.606Z,26.57
2023-01-12T19:48:20.632Z,29.90
2023-01-12T19:50:50.191Z,29.27
2023-01-12T19:53:20.755Z,32.77
2023-01-12T19:55:49.875Z,30.00
2023-01-12T19:58:18.098Z,28.50
2023-01-12T20:00:46.539Z,27.67
2023-01-12T20:03:16.128Z,29.23
2023-01-12T20:05:47.191Z,27.53
2023-01-12T20:08:16.580Z,27.20
2023-01-12T20:10:45.149Z,25.07
2023-01-12T20:13:14.748Z,25.00
2023-01-12T20:15:43.424Z,27.40
2023-01-12T20:18:13.686Z,27.80
2023-01-12T20:20:42.705Z,29.93
2023-01-12T20:23:11.506Z,29.20
2023-01-12T20:25:42.162Z,29.80
2023-01-12T20:28:13.106Z,29.70
2023-01-12T20:30:41.650Z,29.00
2023-01-12T20:33:10.305Z,30.80
2023-01-12T20:35:39.248Z,30.17
2023-01-12T20:38:13.148Z,28.93
2023-01-12T20:40:42.497Z,29.67
2023-01-12T20:43:10.440Z,30.90
2023-01-12T20:45:38.309Z,25.73
2023-01-12T20:48:06.167Z,26.70
2023-01-12T20:50:33.985Z,34.63
2023-01-12T20:53:01.883Z,31.67
2023-01-12T20:55:29.799Z,29.07
2023-01-12T20:57:59.131Z,23.97
2023-01-12T21:00:28.707Z,24.00
2023-01-12T21:02:56.501Z,23.20
2023-01-12T21:05:24.625Z,23.40
2023-01-12T21:08:00.057Z,17.10
2023-01-12T21:10:34.986Z,21.57
2023-01-12T21:13:04.575Z,22.20
2023-01-12T21:15:32.679Z,19.80
2023-01-12T21:18:00.648Z,20.67
2023-01-12T21:20:28.599Z,21.93
2023-01-12T21:22:56.559Z,21.63
2023-01-12T21:25:27.855Z,22.20
2023-01-12T21:27:56.243Z,24.80
2023-01-12T21:30:35.394Z,23.37
2023-01-12T21:33:04.459Z,22.60
2023-01-12T21:35:32.529Z,23.43
2023-01-12T21:38:00.455Z,23.20
2023-01-12T21:40:28.591Z,22.30
2023-01-12T21:43:13.086Z,24.40
2023-01-12T21:45:47.500Z,22.00
2023-01-12T21:48:17.467Z,23.37
2023-01-12T21:50:45.490Z,24.83
2023-01-12T21:53:15.561Z,21.73
2023-01-12T21:55:43.571Z,22.20
2023-01-12T21:58:11.441Z,21.37
2023-01-12T22:00:39.307Z,23.60
2023-01-12T22:03:08.585Z,20.50
2023-01-12T22:05:36.489Z,22.27
2023-01-12T22:08:04.500Z,23.53
2023-01-12T22:10:32.379Z,20.87
2023-01-12T22:13:02.900Z,21.73
2023-01-12T22:15:31.852Z,23.87
2023-01-12T22:18:00.661Z,26.10
2023-01-12T22:20:29.933Z,24.30
2023-01-12T22:22:58.014Z,25.17
2023-01-12T22:25:27.183Z,25.07
2023-01-12T22:27:58.156Z,24.10
2023-01-12T22:30:26.105Z,26.53
2023-01-12T22:32:55.609Z,28.17
2023-01-12T22:35:26.393Z,25.87
2023-01-12T22:37:55.975Z,27.40
2023-01-12T22:40:23.830Z,27.50
2023-01-12T22:43:09.117Z,30.93
2023-01-12T22:45:37.597Z,27.90
2023-01-12T22:48:06.223Z,30.47
2023-01-12T22:50:34.154Z,26.00
2023-01-12T22:53:03.443Z,27.03
2023-01-12T22:55:31.504Z,28.70
2023-01-12T22:57:59.490Z,29.30
2023-01-12T23:00:27.300Z,29.30
2023-01-12T23:03:01.769Z,26.63
2023-01-12T23:05:33.279Z,25.57
2023-01-12T23:08:01.580Z,26.47
2023-01-12T23:10:30.927Z,26.60
2023-01-12T23:13:15.618Z,26.20
2023-01-12T23:15:46.676Z,27.60
2023-01-12T23:18:15.511Z,26.80
2023-01-12T23:20:43.585Z,25.80
2023-01-12T23:23:12.273Z,27.47
2023-01-12T23:25:44.337Z,24.63
2023-01-12T23:28:13.872Z,28.87
2023-01-12T23:30:42.161Z,26.03
2023-01-12T23:33:10.670Z,26.43
2023-01-12T23:35:40.499Z,28.90
2023-01-12T23:38:09.329Z,31.63
2023-01-12T23:40:37.154Z,31.50
2023-01-12T23:43:06.277Z,30.17
2023-01-12T23:45:34.474Z,30.37
2023-01-12T23:48:02.321Z,31.20
2023-01-12T23:50:30.106Z,29.57
2023-01-12T23:52:57.865Z,28.80
2023-01-12T23:55:26.940Z,29.47
2023-01-12T23:57:54.878Z,28.97
